createdAt,value
2018-05-01T00:00:23.432Z,0
2018-05-01T00:01:24.829Z,0
2018-05-01T00:02:26.227Z,0
2018-05-01T00:03:27.628Z,0
2018-05-01T00:04:29.027Z,0
2018-05-01T00:05:30.430Z,0
2018-05-01T00:06:31.836Z,0
2018-05-01T00:07:33.241Z,0
2018-05-01T00:08:34.638Z,0
2018-05-01T00:09:36.043Z,0
2018-05-01T00:10:37.434Z,0
2018-05-01T00:11:38.834Z,0
2018-05-01T00:12:40.235Z,0
2018-05-01T00:13:41.638Z,0
2018-05-01T00:14:43.045Z,0
2018-05-01T00:15:44.443Z,0
2018-05-01T00:16:45.847Z,0
2018-05-01T00:17:47.238Z,0
2018-05-01T00:18:48.643Z,0
2018-05-01T00:19:50.044Z,0
2018-05-01T00:20:51.447Z,0
2018-05-01T00:21:52.848Z,0
2018-05-01T00:22:54.247Z,0
2018-05-01T00:23:55.646Z,0
2018-05-01T00:24:57.047Z,0
2018-05-01T00:25:58.440Z,0
2018-05-01T00:26:59.846Z,0
2018-05-01T00:28:01.250Z,0
2018-05-01T00:29:02.671Z,0
2018-05-01T00:30:04.100Z,0
2018-05-01T00:31:05.508Z,0
2018-05-01T00:32:06.928Z,0
2018-05-01T00:33:08.333Z,0
2018-05-01T00:34:09.761Z,0
2018-05-01T00:35:11.174Z,0
2018-05-01T00:36:12.579Z,0
2018-05-01T00:37:13.998Z,0
2018-05-01T00:38:15.402Z,0
2018-05-01T00:39:16.805Z,0
2018-05-01T00:40:18.216Z,0
2018-05-01T00:41:19.635Z,0
2018-05-01T00:42:21.042Z,0
2018-05-01T00:43:22.448Z,0
2018-05-01T00:44:23.840Z,0
2018-05-01T00:45:25.252Z,0
2018-05-01T00:46:26.649Z,0
2018-05-01T00:47:28.056Z,0
2018-05-01T00:48:29.454Z,0
2018-05-01T00:49:30.796Z,0
2018-05-01T00:50:32.200Z,0
2018-05-01T00:51:33.643Z,0
2018-05-01T00:52:34.990Z,0
2018-05-01T00:53:36.394Z,0
2018-05-01T00:54:37.871Z,0
2018-05-01T00:55:39.271Z,0
2018-05-01T00:56:40.675Z,0
2018-05-01T00:57:42.076Z,0
2018-05-01T00:58:43.473Z,0
2018-05-01T00:59:44.873Z,0
2018-05-01T01:00:46.280Z,0
2018-05-01T01:01:47.677Z,0
2018-05-01T01:02:49.079Z,0
2018-05-01T01:03:50.476Z,0
2018-05-01T01:04:51.880Z,0
2018-05-01T01:05:53.274Z,0
2018-05-01T01:06:54.674Z,0
2018-05-01T01:07:56.073Z,0
2018-05-01T01:08:57.475Z,0
2018-05-01T01:09:58.871Z,0
2018-05-01T01:11:00.272Z,0
2018-05-01T01:12:01.674Z,0
2018-05-01T01:13:03.073Z,0
2018-05-01T01:14:04.479Z,0
2018-05-01T01:15:05.873Z,0
2018-05-01T01:16:07.272Z,0
2018-05-01T01:17:08.674Z,0
2018-05-01T01:18:10.083Z,0
2018-05-01T01:19:11.487Z,0
2018-05-01T01:20:12.887Z,0
2018-05-01T01:21:14.286Z,0
2018-05-01T01:22:15.687Z,0
2018-05-01T01:23:17.085Z,0
2018-05-01T01:24:18.486Z,0
2018-05-01T01:25:19.889Z,0
2018-05-01T01:26:21.292Z,0
2018-05-01T01:27:22.684Z,0
2018-05-01T01:28:24.085Z,0
2018-05-01T01:29:25.482Z,0
2018-05-01T01:30:26.884Z,0
2018-05-01T01:31:28.283Z,0
2018-05-01T01:32:29.680Z,0
2018-05-01T01:33:31.081Z,0
2018-05-01T01:34:32.481Z,0
2018-05-01T01:35:33.878Z,0
2018-05-01T01:36:35.278Z,0
2018-05-01T01:37:36.676Z,0
2018-05-01T01:38:38.075Z,0
2018-05-01T01:39:39.473Z,0
2018-05-01T01:40:40.881Z,0
2018-05-01T01:41:42.280Z,0
2018-05-01T01:42:43.679Z,0
2018-05-01T01:43:45.076Z,0
2018-05-01T01:44:46.475Z,0
2018-05-01T01:45:47.874Z,0
2018-05-01T01:46:49.289Z,0
2018-05-01T01:47:50.687Z,0
2018-05-01T01:48:52.086Z,0
2018-05-01T01:49:53.485Z,0
2018-05-01T01:50:54.882Z,0
2018-05-01T01:51:56.282Z,0
2018-05-01T01:52:57.683Z,0
2018-05-01T01:53:59.087Z,0
2018-05-01T01:55:00.490Z,0
2018-05-01T01:56:01.887Z,0
2018-05-01T01:57:03.284Z,0
2018-05-01T01:58:04.687Z,0
2018-05-01T01:59:06.082Z,0
2018-05-01T02:00:07.486Z,0
2018-05-01T02:01:08.889Z,0
2018-05-01T02:02:10.288Z,0
2018-05-01T02:03:11.685Z,0
2018-05-01T02:04:13.093Z,0
2018-05-01T02:05:14.479Z,0
2018-05-01T02:06:15.883Z,0
2018-05-01T02:07:17.285Z,0
2018-05-01T02:08:18.681Z,0
2018-05-01T02:09:20.081Z,0
2018-05-01T02:10:21.482Z,0
2018-05-01T02:11:22.888Z,0
2018-05-01T02:12:24.287Z,0
2018-05-01T02:13:25.689Z,0
2018-05-01T02:14:27.084Z,0
2018-05-01T02:15:28.484Z,0
2018-05-01T02:16:29.891Z,0
2018-05-01T02:17:31.277Z,0
2018-05-01T02:18:32.679Z,0
2018-05-01T02:19:34.072Z,0
2018-05-01T02:20:35.469Z,0
2018-05-01T02:21:36.871Z,0
2018-05-01T02:22:38.270Z,0
2018-05-01T02:23:39.673Z,0
2018-05-01T02:24:41.073Z,0
2018-05-01T02:25:42.468Z,0
2018-05-01T02:26:43.873Z,0
2018-05-01T02:27:45.268Z,0
2018-05-01T02:28:46.673Z,0
2018-05-01T02:29:48.067Z,0
2018-05-01T02:30:49.466Z,0
2018-05-01T02:31:50.863Z,0
2018-05-01T02:32:52.262Z,0
2018-05-01T02:33:53.659Z,0
2018-05-01T02:34:55.059Z,0
2018-05-01T02:35:56.459Z,0
2018-05-01T02:36:57.866Z,0
2018-05-01T02:37:59.263Z,0
2018-05-01T02:39:00.662Z,0
2018-05-01T02:40:02.057Z,0
2018-05-01T02:41:03.454Z,0
2018-05-01T02:42:04.854Z,0
2018-05-01T02:43:06.262Z,0
2018-05-01T02:44:07.663Z,0
2018-05-01T02:45:09.062Z,0
2018-05-01T02:46:10.457Z,0
2018-05-01T02:47:11.852Z,0
2018-05-01T02:48:13.253Z,0
2018-05-01T02:49:14.652Z,0
2018-05-01T02:50:16.049Z,0
2018-05-01T02:51:17.450Z,0
2018-05-01T02:52:18.852Z,0
2018-05-01T02:53:20.251Z,0
2018-05-01T02:54:21.653Z,0
2018-05-01T02:55:23.049Z,0
2018-05-01T02:56:24.450Z,0
2018-05-01T02:57:25.850Z,0
2018-05-01T02:58:27.251Z,0
2018-05-01T02:59:28.657Z,0
2018-05-01T03:00:30.055Z,0
2018-05-01T03:01:31.463Z,0
2018-05-01T03:02:32.884Z,0
2018-05-01T03:03:34.284Z,0
2018-05-01T03:04:35.694Z,0
2018-05-01T03:05:37.088Z,0
2018-05-01T03:06:38.495Z,0
2018-05-01T03:07:39.888Z,0
2018-05-01T03:08:41.295Z,0
2018-05-01T03:09:42.767Z,0
2018-05-01T03:10:44.088Z,0
2018-05-01T03:11:45.491Z,0
2018-05-01T03:12:46.892Z,0
2018-05-01T03:13:48.288Z,0
2018-05-01T03:14:49.700Z,0
2018-05-01T03:15:51.094Z,0
2018-05-01T03:16:52.493Z,0
2018-05-01T03:17:53.900Z,0
2018-05-01T03:18:55.299Z,4
2018-05-01T03:19:56.706Z,4
2018-05-01T03:20:58.102Z,0
2018-05-01T03:21:59.501Z,4
2018-05-01T03:23:00.892Z,4
2018-05-01T03:24:02.297Z,4
2018-05-01T03:25:03.700Z,4
2018-05-01T03:26:05.096Z,8
2018-05-01T03:27:06.498Z,8
2018-05-01T03:28:07.892Z,8
2018-05-01T03:29:09.353Z,8
2018-05-01T03:30:10.754Z,12
2018-05-01T03:31:12.155Z,12
2018-05-01T03:32:13.548Z,16
2018-05-01T03:33:14.952Z,20
2018-05-01T03:34:16.369Z,20
2018-05-01T03:35:17.750Z,24
2018-05-01T03:36:19.173Z,28
2018-05-01T03:37:20.545Z,32
2018-05-01T03:38:21.946Z,36
2018-05-01T03:39:23.345Z,44
2018-05-01T03:40:24.744Z,48
2018-05-01T03:41:26.154Z,56
2018-05-01T03:42:27.545Z,60
2018-05-01T03:43:28.939Z,68
2018-05-01T03:44:30.337Z,76
2018-05-01T03:45:31.739Z,84
2018-05-01T03:46:33.139Z,92
2018-05-01T03:47:34.539Z,100
2018-05-01T03:48:35.944Z,112
2018-05-01T03:49:37.339Z,124
2018-05-01T03:50:38.739Z,136
2018-05-01T03:51:40.139Z,148
2018-05-01T03:52:41.531Z,160
2018-05-01T03:53:42.930Z,172
2018-05-01T03:54:44.333Z,188
2018-05-01T03:55:45.737Z,200
2018-05-01T03:56:47.140Z,216
2018-05-01T03:57:48.539Z,232
2018-05-01T03:58:49.943Z,244
2018-05-01T03:59:51.353Z,260
2018-05-01T04:00:52.740Z,276
2018-05-01T04:01:54.143Z,292
2018-05-01T04:02:55.547Z,312
2018-05-01T04:03:56.966Z,324
2018-05-01T04:04:58.377Z,344
2018-05-01T04:05:59.768Z,356
2018-05-01T04:07:01.170Z,376
2018-05-01T04:08:02.573Z,392
2018-05-01T04:09:03.977Z,408
2018-05-01T04:10:05.380Z,424
2018-05-01T04:11:06.779Z,444
2018-05-01T04:12:08.183Z,456
2018-05-01T04:13:09.585Z,472
2018-05-01T04:14:10.992Z,492
2018-05-01T04:15:12.386Z,512
2018-05-01T04:16:13.793Z,532
2018-05-01T04:17:15.192Z,556
2018-05-01T04:18:16.602Z,592
2018-05-01T04:19:18.004Z,612
2018-05-01T04:20:19.396Z,620
2018-05-01T04:21:20.807Z,624
2018-05-01T04:22:22.208Z,644
2018-05-01T04:23:23.628Z,644
2018-05-01T04:24:25.020Z,640
2018-05-01T04:25:26.444Z,648
2018-05-01T04:26:27.822Z,652
2018-05-01T04:27:29.229Z,656
2018-05-01T04:28:30.633Z,664
2018-05-01T04:29:32.031Z,672
2018-05-01T04:30:33.433Z,680
2018-05-01T04:31:34.831Z,688
2018-05-01T04:32:36.235Z,700
2018-05-01T04:33:37.635Z,716
2018-05-01T04:34:39.037Z,736
2018-05-01T04:35:40.436Z,756
2018-05-01T04:36:41.841Z,780
2018-05-01T04:37:43.244Z,800
2018-05-01T04:38:44.646Z,816
2018-05-01T04:39:46.049Z,828
2018-05-01T04:40:47.448Z,840
2018-05-01T04:41:48.857Z,844
2018-05-01T04:42:50.256Z,840
2018-05-01T04:43:51.662Z,840
2018-05-01T04:44:53.069Z,844
2018-05-01T04:45:54.474Z,856
2018-05-01T04:46:55.877Z,868
2018-05-01T04:47:57.291Z,884
2018-05-01T04:48:58.693Z,884
2018-05-01T04:50:00.095Z,888
2018-05-01T04:51:01.496Z,888
2018-05-01T04:52:02.895Z,892
2018-05-01T04:53:04.307Z,908
2018-05-01T04:54:05.704Z,928
2018-05-01T04:55:07.097Z,952
2018-05-01T04:56:08.500Z,972
2018-05-01T04:57:09.901Z,996
2018-05-01T04:58:11.309Z,1024
2018-05-01T04:59:12.706Z,1040
2018-05-01T05:00:14.113Z,1056
2018-05-01T05:01:15.516Z,1076
2018-05-01T05:02:16.916Z,1084
2018-05-01T05:03:18.314Z,1088
2018-05-01T05:04:19.722Z,1088
2018-05-01T05:05:21.127Z,1088
2018-05-01T05:06:22.531Z,1088
2018-05-01T05:07:23.935Z,1088
2018-05-01T05:08:25.334Z,1096
2018-05-01T05:09:26.767Z,1108
2018-05-01T05:10:28.143Z,1124
2018-05-01T05:11:29.550Z,1132
2018-05-01T05:12:30.966Z,1140
2018-05-01T05:13:32.366Z,1160
2018-05-01T05:14:33.768Z,1200
2018-05-01T05:15:35.183Z,1412
2018-05-01T05:16:36.582Z,1596
2018-05-01T05:17:38.018Z,1620
2018-05-01T05:18:39.448Z,1644
2018-05-01T05:19:40.832Z,1680
2018-05-01T05:20:42.303Z,1668
2018-05-01T05:21:43.731Z,1680
2018-05-01T05:22:45.170Z,1660
2018-05-01T05:23:46.716Z,1732
2018-05-01T05:24:48.221Z,1756
2018-05-01T05:25:49.705Z,1720
2018-05-01T05:26:51.244Z,1712
2018-05-01T05:27:52.728Z,1784
2018-05-01T05:28:54.185Z,1804
2018-05-01T05:29:55.630Z,1808
2018-05-01T05:30:57.110Z,1812
2018-05-01T05:31:58.583Z,1828
2018-05-01T05:33:00.084Z,1840
2018-05-01T05:34:01.667Z,1856
2018-05-01T05:35:03.137Z,1868
2018-05-01T05:36:04.658Z,1884
2018-05-01T05:37:06.187Z,1892
2018-05-01T05:38:07.670Z,1912
2018-05-01T05:39:09.096Z,1928
2018-05-01T05:40:10.575Z,1960
2018-05-01T05:41:12.060Z,1972
2018-05-01T05:42:13.559Z,1948
2018-05-01T05:43:14.977Z,1624
2018-05-01T05:44:16.400Z,1760
2018-05-01T05:45:17.806Z,1732
2018-05-01T05:46:19.208Z,1984
2018-05-01T05:47:20.624Z,1764
2018-05-01T05:48:22.081Z,2096
2018-05-01T05:49:23.585Z,2064
2018-05-01T05:50:25.021Z,2068
2018-05-01T05:51:26.562Z,1972
2018-05-01T05:52:28.063Z,2044
2018-05-01T05:53:29.499Z,1840
2018-05-01T05:54:30.963Z,2024
2018-05-01T05:55:32.453Z,2008
2018-05-01T05:56:33.990Z,2328
2018-05-01T05:57:35.579Z,2200
2018-05-01T05:58:37.046Z,2536
2018-05-01T05:59:38.490Z,2624
2018-05-01T06:00:40.010Z,2660
2018-05-01T06:01:41.558Z,2736
2018-05-01T06:02:43.022Z,2844
2018-05-01T06:03:44.517Z,2796
2018-05-01T06:04:46.006Z,2912
2018-05-01T06:05:47.463Z,2848
2018-05-01T06:06:48.989Z,2836
2018-05-01T06:07:50.578Z,2920
2018-05-01T06:08:52.083Z,3056
2018-05-01T06:09:53.586Z,2780
2018-05-01T06:10:55.064Z,3264
2018-05-01T06:11:56.547Z,3296
2018-05-01T06:12:58.038Z,2700
2018-05-01T06:13:59.500Z,2320
2018-05-01T06:15:00.983Z,2288
2018-05-01T06:16:02.534Z,2376
2018-05-01T06:17:04.016Z,2488
2018-05-01T06:18:05.483Z,2800
2018-05-01T06:19:06.957Z,3388
2018-05-01T06:20:08.413Z,2852
2018-05-01T06:21:10.402Z,3052
2018-05-01T06:22:11.835Z,3016
2018-05-01T06:23:13.283Z,5968
2018-05-01T06:24:14.792Z,6924
2018-05-01T06:25:16.282Z,5596
2018-05-01T06:26:17.743Z,5684
2018-05-01T06:27:19.192Z,6060
2018-05-01T06:28:20.654Z,4948
2018-05-01T06:29:22.120Z,3604
2018-05-01T06:30:23.573Z,3636
2018-05-01T06:31:25.114Z,3780
2018-05-01T06:32:26.510Z,3932
2018-05-01T06:33:28.159Z,4084
2018-05-01T06:34:29.632Z,4204
2018-05-01T06:35:31.104Z,4452
2018-05-01T06:36:32.575Z,4704
2018-05-01T06:37:34.034Z,4916
2018-05-01T06:38:35.470Z,5040
2018-05-01T06:39:36.922Z,5060
2018-05-01T06:40:38.423Z,5024
2018-05-01T06:41:39.952Z,4888
2018-05-01T06:42:41.406Z,4916
2018-05-01T06:43:42.863Z,4972
2018-05-01T06:44:44.328Z,4804
2018-05-01T06:45:45.764Z,4604
2018-05-01T06:46:47.187Z,4412
2018-05-01T06:47:48.644Z,4024
2018-05-01T06:48:50.047Z,3688
2018-05-01T06:49:51.457Z,3748
2018-05-01T06:50:52.857Z,4052
2018-05-01T06:51:54.266Z,4380
2018-05-01T06:52:55.670Z,4580
2018-05-01T06:53:57.076Z,4592
2018-05-01T06:54:58.486Z,4420
2018-05-01T06:55:59.888Z,4068
2018-05-01T06:57:01.298Z,3904
2018-05-01T06:58:02.728Z,4004
2018-05-01T06:59:04.133Z,4096
2018-05-01T07:00:05.622Z,4096
2018-05-01T07:01:07.078Z,4216
2018-05-01T07:02:08.525Z,4712
2018-05-01T07:03:10.047Z,5224
2018-05-01T07:04:11.567Z,5464
2018-05-01T07:05:12.928Z,5632
2018-05-01T07:06:14.332Z,5708
2018-05-01T07:07:15.755Z,5504
2018-05-01T07:08:17.164Z,5240
2018-05-01T07:09:18.577Z,5056
2018-05-01T07:10:20.098Z,4808
2018-05-01T07:11:21.372Z,4988
2018-05-01T07:12:22.775Z,5124
2018-05-01T07:13:24.197Z,5220
2018-05-01T07:14:25.584Z,5128
2018-05-01T07:15:27.021Z,5168
2018-05-01T07:16:28.430Z,5560
2018-05-01T07:17:29.836Z,5844
2018-05-01T07:18:31.290Z,6028
2018-05-01T07:19:32.733Z,6464
2018-05-01T07:20:34.233Z,6292
2018-05-01T07:21:35.639Z,6992
2018-05-01T07:22:37.079Z,10624
2018-05-01T07:23:38.656Z,10432
2018-05-01T07:24:40.132Z,9888
2018-05-01T07:25:41.578Z,5992
2018-05-01T07:26:43.016Z,5724
2018-05-01T07:27:44.475Z,5688
2018-05-01T07:28:45.936Z,5796
2018-05-01T07:29:47.465Z,6020
2018-05-01T07:30:48.895Z,6040
2018-05-01T07:31:50.300Z,5688
2018-05-01T07:32:51.723Z,5360
2018-05-01T07:33:53.198Z,5260
2018-05-01T07:34:54.675Z,4368
2018-05-01T07:35:56.137Z,5368
2018-05-01T07:36:57.612Z,4348
2018-05-01T07:37:59.139Z,4812
2018-05-01T07:39:00.613Z,9516
2018-05-01T07:40:02.094Z,9448
2018-05-01T07:41:03.575Z,9252
2018-05-01T07:42:05.084Z,9184
2018-05-01T07:43:06.713Z,9248
2018-05-01T07:44:08.188Z,9260
2018-05-01T07:45:09.687Z,9112
2018-05-01T07:46:11.158Z,9016
2018-05-01T07:47:12.604Z,9028
2018-05-01T07:48:14.062Z,5240
2018-05-01T07:49:15.521Z,3672
2018-05-01T07:50:16.964Z,3064
2018-05-01T07:51:18.461Z,3104
2018-05-01T07:52:19.971Z,6124
2018-05-01T07:53:21.431Z,7700
2018-05-01T07:54:22.949Z,7280
2018-05-01T07:55:24.452Z,5504
2018-05-01T07:56:25.931Z,7540
2018-05-01T07:57:27.437Z,7788
2018-05-01T07:58:28.948Z,6128
2018-05-01T07:59:30.421Z,7960
2018-05-01T08:00:31.886Z,7940
2018-05-01T08:01:33.406Z,7908
2018-05-01T08:02:34.876Z,7816
2018-05-01T08:03:36.366Z,7904
2018-05-01T08:04:37.860Z,7908
2018-05-01T08:05:39.339Z,7992
2018-05-01T08:06:40.850Z,7980
2018-05-01T08:07:42.373Z,7988
2018-05-01T08:08:43.926Z,8112
2018-05-01T08:09:45.351Z,8120
2018-05-01T08:10:46.769Z,8204
2018-05-01T08:11:50.723Z,8364
2018-05-01T08:12:49.681Z,7628
2018-05-01T08:13:51.113Z,8332
2018-05-01T08:14:52.616Z,8524
2018-05-01T08:15:54.099Z,8532
2018-05-01T08:16:55.633Z,8556
2018-05-01T08:17:57.148Z,8800
2018-05-01T08:18:58.671Z,8984
2018-05-01T08:20:00.130Z,7312
2018-05-01T08:21:01.689Z,9160
2018-05-01T08:22:03.236Z,2824
2018-05-01T08:23:04.714Z,9272
2018-05-01T08:24:06.159Z,8700
2018-05-01T08:25:07.658Z,9328
2018-05-01T08:26:09.182Z,9408
2018-05-01T08:27:10.689Z,9488
2018-05-01T08:28:12.252Z,9472
2018-05-01T08:29:13.777Z,9456
2018-05-01T08:30:15.237Z,9492
2018-05-01T08:31:16.737Z,9532
2018-05-01T08:32:18.219Z,9640
2018-05-01T08:33:19.749Z,9696
2018-05-01T08:34:21.209Z,9740
2018-05-01T08:35:22.697Z,9700
2018-05-01T08:36:24.148Z,9844
2018-05-01T08:37:25.671Z,9908
2018-05-01T08:38:27.198Z,9992
2018-05-01T08:39:28.740Z,10060
2018-05-01T08:40:30.274Z,10096
2018-05-01T08:41:31.792Z,10140
2018-05-01T08:42:33.246Z,10236
2018-05-01T08:43:34.736Z,10284
2018-05-01T08:44:36.199Z,10336
2018-05-01T08:45:37.688Z,10396
2018-05-01T08:46:39.148Z,10412
2018-05-01T08:47:40.717Z,10404
2018-05-01T08:48:42.265Z,10396
2018-05-01T08:49:43.733Z,10256
2018-05-01T08:50:45.217Z,10368
2018-05-01T08:51:46.658Z,10232
2018-05-01T08:52:48.123Z,10328
2018-05-01T08:53:49.594Z,10324
2018-05-01T08:54:51.110Z,10376
2018-05-01T08:55:52.610Z,10328
2018-05-01T08:56:54.079Z,10316
2018-05-01T08:57:55.576Z,10272
2018-05-01T08:58:57.072Z,10260
2018-05-01T08:59:58.570Z,10148
2018-05-01T09:00:59.983Z,10256
2018-05-01T09:02:01.395Z,10332
2018-05-01T09:03:03.304Z,10300
2018-05-01T09:04:05.405Z,10308
2018-05-01T09:05:07.547Z,10216
2018-05-01T09:06:09.300Z,10228
2018-05-01T09:07:10.961Z,10212
2018-05-01T09:08:12.460Z,10164
2018-05-01T09:09:13.888Z,10208
2018-05-01T09:10:15.353Z,10204
2018-05-01T09:11:16.742Z,10268
2018-05-01T09:12:18.149Z,10348
2018-05-01T09:13:19.560Z,10324
2018-05-01T09:14:20.965Z,10404
2018-05-01T09:15:22.383Z,10380
2018-05-01T09:16:23.785Z,10384
2018-05-01T09:17:25.195Z,10340
2018-05-01T09:18:26.650Z,10360
2018-05-01T09:19:28.017Z,10440
2018-05-01T09:20:29.424Z,10188
2018-05-01T09:21:30.871Z,10504
2018-05-01T09:22:32.241Z,10696
2018-05-01T09:23:33.652Z,10784
2018-05-01T09:24:35.077Z,10864
2018-05-01T09:25:36.561Z,10856
2018-05-01T09:26:37.868Z,10948
2018-05-01T09:27:39.301Z,11068
2018-05-01T09:28:40.683Z,11096
2018-05-01T09:29:42.105Z,11284
2018-05-01T09:30:43.513Z,11376
2018-05-01T09:31:44.928Z,11400
2018-05-01T09:32:46.337Z,11488
2018-05-01T09:33:47.752Z,11732
2018-05-01T09:34:49.173Z,11800
2018-05-01T09:35:50.665Z,11892
2018-05-01T09:36:52.210Z,12008
2018-05-01T09:37:53.733Z,12048
2018-05-01T09:38:55.213Z,12220
2018-05-01T09:39:56.667Z,12336
2018-05-01T09:40:58.161Z,12644
2018-05-01T09:41:59.747Z,12856
2018-05-01T09:43:01.284Z,12652
2018-05-01T09:44:02.765Z,13016
2018-05-01T09:45:04.221Z,13308
2018-05-01T09:46:05.655Z,3584
2018-05-01T09:47:07.077Z,13308
2018-05-01T09:48:08.594Z,13436
2018-05-01T09:49:10.131Z,13416
2018-05-01T09:50:11.598Z,13384
2018-05-01T09:51:13.085Z,13432
2018-05-01T09:52:14.583Z,13536
2018-05-01T09:53:16.582Z,13632
2018-05-01T09:54:17.998Z,13952
2018-05-01T09:55:19.420Z,14080
2018-05-01T09:56:20.819Z,14048
2018-05-01T09:57:22.231Z,14240
2018-05-01T09:58:23.638Z,14144
2018-05-01T09:59:25.054Z,14272
2018-05-01T10:00:26.468Z,7388
2018-05-01T10:01:27.888Z,14240
2018-05-01T10:02:29.305Z,14112
2018-05-01T10:03:30.713Z,12508
2018-05-01T10:04:32.115Z,14048
2018-05-01T10:05:33.528Z,13804
2018-05-01T10:06:34.935Z,13768
2018-05-01T10:07:36.344Z,13640
2018-05-01T10:08:37.756Z,13572
2018-05-01T10:09:39.323Z,13544
2018-05-01T10:10:40.725Z,13544
2018-05-01T10:11:42.135Z,13420
2018-05-01T10:12:43.539Z,13272
2018-05-01T10:13:44.951Z,13332
2018-05-01T10:14:46.360Z,13308
2018-05-01T10:15:47.774Z,5360
2018-05-01T10:16:49.180Z,11900
2018-05-01T10:17:50.596Z,13212
2018-05-01T10:18:52.016Z,12184
2018-05-01T10:19:53.422Z,12912
2018-05-01T10:20:54.834Z,12656
2018-05-01T10:21:56.244Z,12560
2018-05-01T10:22:57.656Z,12624
2018-05-01T10:23:59.069Z,12444
2018-05-01T10:25:00.485Z,12364
2018-05-01T10:26:01.887Z,12420
2018-05-01T10:27:03.297Z,12460
2018-05-01T10:28:04.708Z,12344
2018-05-01T10:29:06.118Z,12316
2018-05-01T10:30:07.521Z,12248
2018-05-01T10:31:08.937Z,12332
2018-05-01T10:32:10.341Z,12304
2018-05-01T10:33:11.750Z,12280
2018-05-01T10:34:13.161Z,12312
2018-05-01T10:35:14.572Z,12388
2018-05-01T10:36:16.018Z,12328
2018-05-01T10:37:17.397Z,12568
2018-05-01T10:38:18.811Z,11452
2018-05-01T10:39:20.220Z,13052
2018-05-01T10:40:21.627Z,12844
2018-05-01T10:41:23.036Z,12620
2018-05-01T10:42:24.452Z,12672
2018-05-01T10:43:25.854Z,12780
2018-05-01T10:44:27.265Z,13008
2018-05-01T10:45:28.673Z,13260
2018-05-01T10:46:30.091Z,13424
2018-05-01T10:47:31.507Z,13696
2018-05-01T10:48:32.907Z,13624
2018-05-01T10:49:34.323Z,13764
2018-05-01T10:50:35.738Z,14080
2018-05-01T10:51:37.146Z,14316
2018-05-01T10:52:38.557Z,14860
2018-05-01T10:53:39.967Z,15200
2018-05-01T10:54:41.437Z,17536
2018-05-01T10:55:42.789Z,18176
2018-05-01T10:56:44.194Z,10648
2018-05-01T10:57:45.603Z,6196
2018-05-01T10:58:47.013Z,6616
2018-05-01T10:59:48.433Z,8316
2018-05-01T11:00:49.847Z,15300
2018-05-01T11:01:51.252Z,12980
2018-05-01T11:02:52.676Z,12632
2018-05-01T11:03:54.093Z,26144
2018-05-01T11:04:55.511Z,9248
2018-05-01T11:05:56.946Z,50240
2018-05-01T11:06:58.375Z,9284
2018-05-01T11:07:59.819Z,9876
2018-05-01T11:09:01.224Z,10620
2018-05-01T11:10:02.639Z,22784
2018-05-01T11:11:04.058Z,12944
2018-05-01T11:12:05.504Z,17312
2018-05-01T11:13:06.897Z,36608
2018-05-01T11:14:08.308Z,8464
2018-05-01T11:15:09.736Z,11396
2018-05-01T11:16:11.139Z,70944
2018-05-01T11:17:12.563Z,14720
2018-05-01T11:18:14.036Z,12652
2018-05-01T11:19:15.435Z,14244
2018-05-01T11:20:16.843Z,71488
2018-05-01T11:21:18.275Z,22816
2018-05-01T11:22:19.700Z,66400
2018-05-01T11:23:21.199Z,9736
2018-05-01T11:24:22.611Z,13292
2018-05-01T11:25:24.081Z,70304
2018-05-01T11:26:25.503Z,12656
2018-05-01T11:27:26.908Z,67072
2018-05-01T11:28:28.352Z,12672
2018-05-01T11:29:29.773Z,13256
2018-05-01T11:30:31.213Z,38208
2018-05-01T11:31:32.639Z,69280
2018-05-01T11:32:34.054Z,12612
2018-05-01T11:33:35.501Z,68800
2018-05-01T11:34:36.957Z,69632
2018-05-01T11:35:38.388Z,67648
2018-05-01T11:36:39.807Z,55904
2018-05-01T11:37:41.218Z,15064
2018-05-01T11:38:42.632Z,10924
2018-05-01T11:39:44.067Z,12488
2018-05-01T11:40:45.490Z,76032
2018-05-01T11:41:46.981Z,14296
2018-05-01T11:42:48.434Z,55392
2018-05-01T11:43:49.874Z,13068
2018-05-01T11:44:51.340Z,9968
2018-05-01T11:45:52.740Z,11280
2018-05-01T11:46:54.162Z,12084
2018-05-01T11:47:55.613Z,74336
2018-05-01T11:48:57.044Z,10672
2018-05-01T11:49:58.513Z,14228
2018-05-01T11:51:00.007Z,73856
2018-05-01T11:52:01.524Z,35808
2018-05-01T11:53:03.072Z,71744
2018-05-01T11:54:04.570Z,72096
2018-05-01T11:55:06.082Z,71424
2018-05-01T11:56:07.572Z,67328
2018-05-01T11:57:09.151Z,65344
2018-05-01T11:58:10.631Z,65952
2018-05-01T11:59:12.161Z,67232
2018-05-01T12:00:13.635Z,65248
2018-05-01T12:01:15.139Z,66240
2018-05-01T12:02:16.656Z,69312
2018-05-01T12:03:18.164Z,68224
2018-05-01T12:04:19.615Z,68576
2018-05-01T12:05:21.130Z,70848
2018-05-01T12:06:22.603Z,71968
2018-05-01T12:07:24.029Z,72672
2018-05-01T12:08:25.460Z,24128
2018-05-01T12:09:26.875Z,73056
2018-05-01T12:10:28.329Z,74112
2018-05-01T12:11:29.741Z,67680
2018-05-01T12:12:31.171Z,69696
2018-05-01T12:13:32.606Z,70784
2018-05-01T12:14:34.033Z,71776
2018-05-01T12:15:35.494Z,27328
2018-05-01T12:16:36.916Z,51360
2018-05-01T12:17:38.383Z,70208
2018-05-01T12:18:39.934Z,66496
2018-05-01T12:19:41.285Z,70464
2018-05-01T12:20:42.714Z,72224
2018-05-01T12:21:44.187Z,70112
2018-05-01T12:22:45.673Z,67392
2018-05-01T12:23:47.280Z,69216
2018-05-01T12:24:48.627Z,70784
2018-05-01T12:25:50.069Z,69984
2018-05-01T12:26:51.643Z,69408
2018-05-01T12:27:53.145Z,16380
2018-05-01T12:28:54.626Z,72448
2018-05-01T12:29:56.134Z,71744
2018-05-01T12:30:57.638Z,80032
2018-05-01T12:31:59.164Z,78592
2018-05-01T12:33:00.689Z,74464
2018-05-01T12:34:02.172Z,73760
2018-05-01T12:35:03.652Z,73632
2018-05-01T12:36:05.141Z,76960
2018-05-01T12:37:06.713Z,75392
2018-05-01T12:38:08.761Z,71168
2018-05-01T12:39:10.245Z,63584
2018-05-01T12:40:11.831Z,66752
2018-05-01T12:41:13.307Z,76608
2018-05-01T12:42:14.886Z,72512
2018-05-01T12:43:16.317Z,47040
2018-05-01T12:44:17.896Z,29792
2018-05-01T12:45:19.422Z,27520
2018-05-01T12:46:20.958Z,26976
2018-05-01T12:47:22.497Z,27104
2018-05-01T12:48:24.076Z,27712
2018-05-01T12:49:25.437Z,29760
2018-05-01T12:50:26.893Z,41664
2018-05-01T12:51:28.339Z,64192
2018-05-01T12:52:29.805Z,77696
2018-05-01T12:53:31.320Z,78112
2018-05-01T12:54:32.805Z,77600
2018-05-01T12:55:34.311Z,76384
2018-05-01T12:56:35.802Z,77760
2018-05-01T12:57:37.419Z,80256
2018-05-01T12:58:38.930Z,77440
2018-05-01T12:59:40.363Z,73664
2018-05-01T13:00:41.897Z,78336
2018-05-01T13:01:43.344Z,78976
2018-05-01T13:02:44.879Z,74880
2018-05-01T13:03:46.492Z,76192
2018-05-01T13:04:48.069Z,75040
2018-05-01T13:05:49.546Z,72096
2018-05-01T13:06:50.978Z,72736
2018-05-01T13:07:52.493Z,72096
2018-05-01T13:08:54.011Z,71808
2018-05-01T13:09:55.538Z,76992
2018-05-01T13:10:57.047Z,81216
2018-05-01T13:11:58.548Z,81568
2018-05-01T13:13:00.086Z,80256
2018-05-01T13:14:01.655Z,73856
2018-05-01T13:15:03.190Z,74560
2018-05-01T13:16:04.642Z,81728
2018-05-01T13:17:06.178Z,80960
2018-05-01T13:18:07.657Z,80416
2018-05-01T13:19:09.145Z,78752
2018-05-01T13:20:10.563Z,77152
2018-05-01T13:21:11.995Z,75040
2018-05-01T13:22:13.412Z,70304
2018-05-01T13:23:14.840Z,66624
2018-05-01T13:24:16.257Z,65664
2018-05-01T13:25:17.680Z,75072
2018-05-01T13:26:19.099Z,81056
2018-05-01T13:27:20.572Z,80928
2018-05-01T13:28:21.940Z,80768
2018-05-01T13:29:23.361Z,82784
2018-05-01T13:30:24.787Z,80704
2018-05-01T13:31:26.250Z,78880
2018-05-01T13:32:27.695Z,81728
2018-05-01T13:33:29.084Z,82688
2018-05-01T13:34:30.506Z,83456
2018-05-01T13:35:31.926Z,81024
2018-05-01T13:36:33.344Z,78272
2018-05-01T13:37:34.763Z,72416
2018-05-01T13:38:36.182Z,68608
2018-05-01T13:39:37.599Z,67808
2018-05-01T13:40:39.018Z,74272
2018-05-01T13:41:40.446Z,80512
2018-05-01T13:42:41.857Z,78656
2018-05-01T13:43:43.282Z,80352
2018-05-01T13:44:44.702Z,84736
2018-05-01T13:45:46.116Z,82656
2018-05-01T13:46:47.536Z,74496
2018-05-01T13:47:48.957Z,76288
2018-05-01T13:48:50.374Z,78368
2018-05-01T13:49:51.792Z,78752
2018-05-01T13:50:53.215Z,78880
2018-05-01T13:51:54.630Z,77856